sensor_id;sensor_type;location;lat;lon;timestamp;P1;durP1;ratioP1;P2;durP2;ratioP2
22849;SDS011;11591;44.792;10.358;2022-09-27T04:50:58;5.50;;;2.50;;
22849;SDS011;11591;44.792;10.358;2022-09-27T04:53:26;6.07;;;2.60;;
22849;SDS011;11591;44.792;10.358;2022-09-27T04:55:54;7.07;;;2.28;;
22849;SDS011;11591;44.792;10.358;2022-09-27T04:58:21;3.78;;;2.33;;
22849;SDS011;11591;44.792;10.358;2022-09-27T05:00:48;6.28;;;2.30;;
22849;SDS011;11591;44.792;10.358;2022-09-27T05:03:35;4.30;;;2.50;;
22849;SDS011;11591;44.792;10.358;2022-09-27T05:06:08;8.80;;;2.85;;
22849;SDS011;11591;44.792;10.358;2022-09-27T05:08:35;8.50;;;2.55;;
22849;SDS011;11591;44.792;10.358;2022-09-27T05:11:24;6.13;;;2.92;;
22849;SDS011;11591;44.792;10.358;2022-09-27T05:14:09;4.72;;;2.88;;
22849;SDS011;11591;44.792;10.358;2022-09-27T05:16:48;6.03;;;2.80;;
22849;SDS011;11591;44.792;10.358;2022-09-27T05:19:42;5.20;;;2.90;;
22849;SDS011;11591;44.792;10.358;2022-09-27T05:22:11;5.05;;;2.65;;
22849;SDS011;11591;44.792;10.358;2022-09-27T05:24:41;6.65;;;2.80;;
22849;SDS011;11591;44.792;10.358;2022-09-27T05:27:08;3.25;;;2.45;;
22849;SDS011;11591;44.792;10.358;2022-09-27T05:29:43;5.20;;;2.88;;
22849;SDS011;11591;44.792;10.358;2022-09-27T05:32:14;6.95;;;3.03;;
22849;SDS011;11591;44.792;10.358;2022-09-27T05:34:42;7.50;;;3.13;;
22849;SDS011;11591;44.792;10.358;2022-09-27T05:37:08;6.13;;;3.28;;
22849;SDS011;11591;44.792;10.358;2022-09-27T05:39:37;10.27;;;3.00;;
22849;SDS011;11591;44.792;10.358;2022-09-27T05:42:02;6.43;;;2.90;;
22849;SDS011;11591;44.792;10.358;2022-09-27T05:44:31;3.80;;;2.70;;
22849;SDS011;11591;44.792;10.358;2022-09-27T05:47:02;4.88;;;3.10;;
22849;SDS011;11591;44.792;10.358;2022-09-27T05:49:29;4.05;;;2.72;;
22849;SDS011;11591;44.792;10.358;2022-09-27T05:51:59;6.97;;;2.60;;
22849;SDS011;11591;44.792;10.358;2022-09-27T05:54:26;7.35;;;3.03;;
22849;SDS011;11591;44.792;10.358;2022-09-27T05:56:55;9.98;;;3.08;;
22849;SDS011;11591;44.792;10.358;2022-09-27T05:59:40;7.90;;;3.10;;
22849;SDS011;11591;44.792;10.358;2022-09-27T06:02:20;10.70;;;4.15;;
22849;SDS011;11591;44.792;10.358;2022-09-27T06:05:04;9.75;;;3.75;;
22849;SDS011;11591;44.792;10.358;2022-09-27T06:08:11;11.48;;;4.05;;
22849;SDS011;11591;44.792;10.358;2022-09-27T06:10:43;8.75;;;4.53;;
22849;SDS011;11591;44.792;10.358;2022-09-27T06:13:10;6.65;;;3.85;;
22849;SDS011;11591;44.792;10.358;2022-09-27T06:15:40;8.10;;;4.55;;
22849;SDS011;11591;44.792;10.358;2022-09-27T06:18:09;10.48;;;4.32;;
22849;SDS011;11591;44.792;10.358;2022-09-27T06:20:38;8.73;;;4.70;;
22849;SDS011;11591;44.792;10.358;2022-09-27T06:23:09;8.75;;;5.20;;
22849;SDS011;11591;44.792;10.358;2022-09-27T06:25:36;10.23;;;4.47;;
22849;SDS011;11591;44.792;10.358;2022-09-27T06:28:23;10.52;;;4.15;;
22849;SDS011;11591;44.792;10.358;2022-09-27T06:30:54;14.50;;;4.82;;
22849;SDS011;11591;44.792;10.358;2022-09-27T06:33:28;14.07;;;5.10;;
22849;SDS011;11591;44.792;10.358;2022-09-27T06:35:55;10.45;;;4.55;;
22849;SDS011;11591;44.792;10.358;2022-09-27T06:38:25;8.27;;;4.95;;
22849;SDS011;11591;44.792;10.358;2022-09-27T06:41:04;7.05;;;4.38;;
22849;SDS011;11591;44.792;10.358;2022-09-27T06:43:57;13.02;;;4.82;;
22849;SDS011;11591;44.792;10.358;2022-09-27T06:46:41;7.93;;;4.25;;
22849;SDS011;11591;44.792;10.358;2022-09-27T06:49:07;10.95;;;4.97;;
22849;SDS011;11591;44.792;10.358;2022-09-27T06:51:33;8.30;;;4.30;;
22849;SDS011;11591;44.792;10.358;2022-09-27T06:54:00;12.02;;;5.60;;
22849;SDS011;11591;44.792;10.358;2022-09-27T06:56:26;12.95;;;5.50;;
22849;SDS011;11591;44.792;10.358;2022-09-27T06:58:52;9.52;;;5.18;;
22849;SDS011;11591;44.792;10.358;2022-09-27T07:01:42;9.45;;;5.60;;
22849;SDS011;11591;44.792;10.358;2022-09-27T07:04:12;11.25;;;6.03;;
22849;SDS011;11591;44.792;10.358;2022-09-27T07:06:48;13.07;;;6.65;;
22849;SDS011;11591;44.792;10.358;2022-09-27T07:09:20;11.27;;;6.15;;
22849;SDS011;11591;44.792;10.358;2022-09-27T07:11:46;12.30;;;6.03;;
22849;SDS011;11591;44.792;10.358;2022-09-27T07:14:12;12.02;;;6.43;;
22849;SDS011;11591;44.792;10.358;2022-09-27T07:16:38;9.95;;;6.38;;
22849;SDS011;11591;44.792;10.358;2022-09-27T07:19:04;11.40;;;6.43;;
22849;SDS011;11591;44.792;10.358;2022-09-27T07:21:32;14.00;;;6.65;;
22849;SDS011;11591;44.792;10.358;2022-09-27T07:23:58;13.32;;;6.53;;
22849;SDS011;11591;44.792;10.358;2022-09-27T07:26:24;11.00;;;6.57;;
22849;SDS011;11591;44.792;10.358;2022-09-27T07:28:50;13.20;;;6.68;;
22849;SDS011;11591;44.792;10.358;2022-09-27T07:31:19;16.95;;;6.65;;
22849;SDS011;11591;44.792;10.358;2022-09-27T07:33:45;12.57;;;6.68;;
22849;SDS011;11591;44.792;10.358;2022-09-27T07:36:11;14.15;;;7.25;;
22849;SDS011;11591;44.792;10.358;2022-09-27T07:38:40;11.70;;;7.03;;
22849;SDS011;11591;44.792;10.358;2022-09-27T07:41:10;12.80;;;6.75;;
22849;SDS011;11591;44.792;10.358;2022-09-27T07:43:38;13.82;;;6.43;;
22849;SDS011;11591;44.792;10.358;2022-09-27T07:46:05;13.20;;;7.93;;
22849;SDS011;11591;44.792;10.358;2022-09-27T07:48:49;22.08;;;9.02;;
22849;SDS011;11591;44.792;10.358;2022-09-27T07:51:38;12.43;;;7.10;;
22849;SDS011;11591;44.792;10.358;2022-09-27T07:54:09;13.60;;;7.43;;
22849;SDS011;11591;44.792;10.358;2022-09-27T07:56:35;14.00;;;7.20;;
22849;SDS011;11591;44.792;10.358;2022-09-27T07:59:02;13.98;;;8.10;;
22849;SDS011;11591;44.792;10.358;2022-09-27T08:01:28;14.00;;;8.82;;
22849;SDS011;11591;44.792;10.358;2022-09-27T08:03:55;18.58;;;8.95;;
22849;SDS011;11591;44.792;10.358;2022-09-27T08:06:22;19.35;;;9.32;;
22849;SDS011;11591;44.792;10.358;2022-09-27T08:08:49;18.13;;;10.43;;
22849;SDS011;11591;44.792;10.358;2022-09-27T08:11:16;18.70;;;10.30;;
22849;SDS011;11591;44.792;10.358;2022-09-27T08:13:44;19.13;;;10.23;;
22849;SDS011;11591;44.792;10.358;2022-09-27T08:16:11;16.88;;;10.30;;
22849;SDS011;11591;44.792;10.358;2022-09-27T08:18:56;18.60;;;10.48;;
22849;SDS011;11591;44.792;10.358;2022-09-27T08:21:40;17.65;;;10.18;;
22849;SDS011;11591;44.792;10.358;2022-09-27T08:24:13;19.85;;;9.15;;
22849;SDS011;11591;44.792;10.358;2022-09-27T08:26:58;16.67;;;8.30;;
22849;SDS011;11591;44.792;10.358;2022-09-27T08:29:43;18.98;;;8.25;;
22849;SDS011;11591;44.792;10.358;2022-09-27T08:32:10;15.82;;;8.70;;
22849;SDS011;11591;44.792;10.358;2022-09-27T08:34:36;16.10;;;9.18;;
22849;SDS011;11591;44.792;10.358;2022-09-27T08:37:02;12.65;;;7.80;;
22849;SDS011;11591;44.792;10.358;2022-09-27T08:39:29;19.08;;;9.95;;
22849;SDS011;11591;44.792;10.358;2022-09-27T08:42:01;16.05;;;9.75;;
22849;SDS011;11591;44.792;10.358;2022-09-27T08:47:39;24.45;;;11.13;;
22849;SDS011;11591;44.792;10.358;2022-09-27T08:55:42;19.77;;;10.52;;
22849;SDS011;11591;44.792;10.358;2022-09-27T09:00:56;28.30;;;11.32;;
22849;SDS011;11591;44.792;10.358;2022-09-27T09:03:29;22.17;;;10.88;;
22849;SDS011;11591;44.792;10.358;2022-09-27T09:06:06;25.60;;;12.93;;
22849;SDS011;11591;44.792;10.358;2022-09-27T09:23:26;20.80;;;12.05;;
22849;SDS011;11591;44.792;10.358;2022-09-27T09:26:08;23.73;;;13.32;;
22849;SDS011;11591;44.792;10.358;2022-09-27T09:34:49;67.35;;;35.30;;
22849;SDS011;11591;44.792;10.358;2022-09-27T09:37:34;20.17;;;11.38;;
22849;SDS011;11591;44.792;10.358;2022-09-27T09:40:05;18.67;;;10.90;;
22849;SDS011;11591;44.792;10.358;2022-09-27T09:42:50;20.10;;;11.23;;
22849;SDS011;11591;44.792;10.358;2022-09-27T09:45:24;22.23;;;11.23;;
22849;SDS011;11591;44.792;10.358;2022-09-27T09:47:59;21.42;;;11.48;;
22849;SDS011;11591;44.792;10.358;2022-09-27T09:50:47;24.67;;;12.48;;
22849;SDS011;11591;44.792;10.358;2022-09-27T09:53:21;24.45;;;11.85;;
22849;SDS011;11591;44.792;10.358;2022-09-27T09:55:54;25.95;;;12.32;;
22849;SDS011;11591;44.792;10.358;2022-09-27T09:58:27;25.02;;;12.25;;
22849;SDS011;11591;44.792;10.358;2022-09-27T10:01:18;26.73;;;13.48;;
22849;SDS011;11591;44.792;10.358;2022-09-27T10:03:48;56.50;;;33.35;;
22849;SDS011;11591;44.792;10.358;2022-09-27T10:06:14;24.13;;;13.10;;
22849;SDS011;11591;44.792;10.358;2022-09-27T10:08:42;24.05;;;13.23;;
22849;SDS011;11591;44.792;10.358;2022-09-27T10:11:31;23.83;;;13.50;;
22849;SDS011;11591;44.792;10.358;2022-09-27T10:14:21;30.15;;;13.98;;
22849;SDS011;11591;44.792;10.358;2022-09-27T10:16:52;20.55;;;12.38;;
22849;SDS011;11591;44.792;10.358;2022-09-27T10:19:25;22.63;;;12.63;;
22849;SDS011;11591;44.792;10.358;2022-09-27T10:22:01;22.77;;;12.93;;
22849;SDS011;11591;44.792;10.358;2022-09-27T10:27:41;25.95;;;13.60;;
22849;SDS011;11591;44.792;10.358;2022-09-27T10:32:48;27.02;;;14.43;;
22849;SDS011;11591;44.792;10.358;2022-09-27T10:35:36;25.40;;;14.63;;
22849;SDS011;11591;44.792;10.358;2022-09-27T10:38:21;25.88;;;14.10;;
22849;SDS011;11591;44.792;10.358;2022-09-27T10:43:47;28.55;;;13.27;;
22849;SDS011;11591;44.792;10.358;2022-09-27T10:46:26;18.40;;;11.60;;
22849;SDS011;11591;44.792;10.358;2022-09-27T10:49:15;26.95;;;14.13;;
22849;SDS011;11591;44.792;10.358;2022-09-27T10:51:41;24.60;;;14.50;;
22849;SDS011;11591;44.792;10.358;2022-09-27T10:54:51;23.95;;;14.70;;
22849;SDS011;11591;44.792;10.358;2022-09-27T10:57:05;24.20;;;14.00;;
22849;SDS011;11591;44.792;10.358;2022-09-27T10:59:50;26.52;;;16.30;;
22849;SDS011;11591;44.792;10.358;2022-09-27T11:02:36;33.70;;;20.55;;
22849;SDS011;11591;44.792;10.358;2022-09-27T11:07:47;18.52;;;10.73;;
22849;SDS011;11591;44.792;10.358;2022-09-27T11:15:35;24.48;;;12.38;;
22849;SDS011;11591;44.792;10.358;2022-09-27T11:24:12;18.40;;;11.10;;
22849;SDS011;11591;44.792;10.358;2022-09-27T11:33:41;18.67;;;12.23;;
22849;SDS011;11591;44.792;10.358;2022-09-27T11:45:19;19.02;;;9.65;;
22849;SDS011;11591;44.792;10.358;2022-09-27T11:59:08;15.95;;;9.23;;
22849;SDS011;11591;44.792;10.358;2022-09-27T12:10:18;12.30;;;6.65;;
22849;SDS011;11591;44.792;10.358;2022-09-27T12:12:52;13.18;;;6.78;;
22849;SDS011;11591;44.792;10.358;2022-09-27T12:15:23;11.88;;;6.30;;
22849;SDS011;11591;44.792;10.358;2022-09-27T12:17:57;14.18;;;7.07;;
22849;SDS011;11591;44.792;10.358;2022-09-27T12:20:38;11.88;;;6.40;;
22849;SDS011;11591;44.792;10.358;2022-09-27T12:23:16;9.68;;;6.07;;
22849;SDS011;11591;44.792;10.358;2022-09-27T12:25:57;14.07;;;6.90;;
22849;SDS011;11591;44.792;10.358;2022-09-27T12:28:34;13.27;;;6.25;;
22849;SDS011;11591;44.792;10.358;2022-09-27T12:31:35;13.63;;;7.68;;
22849;SDS011;11591;44.792;10.358;2022-09-27T12:36:40;21.45;;;12.65;;
22849;SDS011;11591;44.792;10.358;2022-09-27T12:39:14;14.13;;;7.97;;
22849;SDS011;11591;44.792;10.358;2022-09-27T12:42:03;18.80;;;10.52;;
22849;SDS011;11591;44.792;10.358;2022-09-27T12:44:42;23.05;;;12.40;;
22849;SDS011;11591;44.792;10.358;2022-09-27T12:47:12;14.45;;;6.90;;
22849;SDS011;11591;44.792;10.358;2022-09-27T12:52:36;10.43;;;5.38;;
22849;SDS011;11591;44.792;10.358;2022-09-27T13:00:25;13.73;;;5.05;;
22849;SDS011;11591;44.792;10.358;2022-09-27T13:14:19;14.02;;;6.70;;
22849;SDS011;11591;44.792;10.358;2022-09-27T13:16:49;14.02;;;6.50;;
22849;SDS011;11591;44.792;10.358;2022-09-27T13:19:37;14.43;;;8.10;;
22849;SDS011;11591;44.792;10.358;2022-09-27T13:31:00;11.80;;;7.38;;
22849;SDS011;11591;44.792;10.358;2022-09-27T13:33:33;15.65;;;9.13;;
22849;SDS011;11591;44.792;10.358;2022-09-27T13:42:06;11.45;;;7.07;;
22849;SDS011;11591;44.792;10.358;2022-09-27T13:44:48;10.10;;;6.40;;
22849;SDS011;11591;44.792;10.358;2022-09-27T13:47:37;9.60;;;6.30;;
22849;SDS011;11591;44.792;10.358;2022-09-27T13:53:02;11.32;;;6.13;;
22849;SDS011;11591;44.792;10.358;2022-09-27T13:58:04;9.52;;;5.25;;
22849;SDS011;11591;44.792;10.358;2022-09-27T14:00:49;9.80;;;5.72;;
22849;SDS011;11591;44.792;10.358;2022-09-27T14:03:27;11.80;;;5.22;;
22849;SDS011;11591;44.792;10.358;2022-09-27T14:06:05;9.57;;;5.50;;
22849;SDS011;11591;44.792;10.358;2022-09-27T14:11:15;7.75;;;5.32;;
22849;SDS011;11591;44.792;10.358;2022-09-27T14:14:04;11.20;;;5.78;;
22849;SDS011;11591;44.792;10.358;2022-09-27T14:16:42;8.70;;;6.28;;
22849;SDS011;11591;44.792;10.358;2022-09-27T14:19:22;10.30;;;6.20;;
22849;SDS011;11591;44.792;10.358;2022-09-27T14:21:53;15.43;;;10.23;;
22849;SDS011;11591;44.792;10.358;2022-09-27T14:24:45;21.77;;;11.90;;
22849;SDS011;11591;44.792;10.358;2022-09-27T14:27:35;10.27;;;6.45;;
22849;SDS011;11591;44.792;10.358;2022-09-27T14:30:25;10.05;;;5.40;;
22849;SDS011;11591;44.792;10.358;2022-09-27T14:33:28;13.80;;;5.70;;
22849;SDS011;11591;44.792;10.358;2022-09-27T14:35:59;10.18;;;5.93;;
22849;SDS011;11591;44.792;10.358;2022-09-27T14:38:46;11.48;;;5.18;;
22849;SDS011;11591;44.792;10.358;2022-09-27T14:41:21;11.88;;;5.45;;
22849;SDS011;11591;44.792;10.358;2022-09-27T14:43:48;9.63;;;4.60;;
22849;SDS011;11591;44.792;10.358;2022-09-27T14:46:28;8.45;;;3.92;;
22849;SDS011;11591;44.792;10.358;2022-09-27T14:48:56;8.98;;;3.50;;
22849;SDS011;11591;44.792;10.358;2022-09-27T14:51:27;8.73;;;2.67;;
22849;SDS011;11591;44.792;10.358;2022-09-27T14:53:56;7.05;;;2.17;;
22849;SDS011;11591;44.792;10.358;2022-09-27T14:56:34;5.00;;;1.80;;
22849;SDS011;11591;44.792;10.358;2022-09-27T14:59:05;5.05;;;1.20;;
22849;SDS011;11591;44.792;10.358;2022-09-27T15:01:38;9.07;;;1.63;;
22849;SDS011;11591;44.792;10.358;2022-09-27T15:04:12;7.72;;;4.60;;
22849;SDS011;11591;44.792;10.358;2022-09-27T15:06:39;4.75;;;2.95;;
22849;SDS011;11591;44.792;10.358;2022-09-27T15:09:09;11.15;;;2.70;;
22849;SDS011;11591;44.792;10.358;2022-09-27T15:11:41;6.53;;;1.42;;
22849;SDS011;11591;44.792;10.358;2022-09-27T15:14:17;6.95;;;0.80;;
22849;SDS011;11591;44.792;10.358;2022-09-27T15:16:45;5.18;;;0.80;;
22849;SDS011;11591;44.792;10.358;2022-09-27T15:19:14;3.33;;;1.08;;
22849;SDS011;11591;44.792;10.358;2022-09-27T15:21:46;3.83;;;1.00;;
22849;SDS011;11591;44.792;10.358;2022-09-27T15:27:02;5.88;;;1.02;;
22849;SDS011;11591;44.792;10.358;2022-09-27T15:29:37;5.63;;;1.02;;
22849;SDS011;11591;44.792;10.358;2022-09-27T15:32:03;10.98;;;1.50;;
22849;SDS011;11591;44.792;10.358;2022-09-27T15:34:31;5.28;;;1.15;;
22849;SDS011;11591;44.792;10.358;2022-09-27T15:37:01;5.78;;;1.10;;
22849;SDS011;11591;44.792;10.358;2022-09-27T15:39:30;1.65;;;0.70;;
22849;SDS011;11591;44.792;10.358;2022-09-27T15:42:05;4.90;;;0.90;;
22849;SDS011;11591;44.792;10.358;2022-09-27T15:55:16;8.77;;;1.80;;
22849;SDS011;11591;44.792;10.358;2022-09-27T15:57:45;18.17;;;9.85;;
22849;SDS011;11591;44.792;10.358;2022-09-27T16:00:23;11.13;;;1.40;;
22849;SDS011;11591;44.792;10.358;2022-09-27T16:02:51;6.68;;;1.23;;
22849;SDS011;11591;44.792;10.358;2022-09-27T16:05:18;3.08;;;1.30;;
22849;SDS011;11591;44.792;10.358;2022-09-27T16:07:43;7.68;;;1.42;;
22849;SDS011;11591;44.792;10.358;2022-09-27T16:12:47;6.53;;;0.95;;
22849;SDS011;11591;44.792;10.358;2022-09-27T16:15:15;5.60;;;1.10;;
22849;SDS011;11591;44.792;10.358;2022-09-27T16:17:41;4.30;;;0.80;;
22849;SDS011;11591;44.792;10.358;2022-09-27T16:20:10;4.07;;;1.20;;
22849;SDS011;11591;44.792;10.358;2022-09-27T16:22:49;5.72;;;1.10;;
22849;SDS011;11591;44.792;10.358;2022-09-27T16:25:18;6.78;;;1.00;;
22849;SDS011;11591;44.792;10.358;2022-09-27T16:27:46;8.95;;;1.40;;
22849;SDS011;11591;44.792;10.358;2022-09-27T16:30:13;9.13;;;1.50;;
22849;SDS011;11591;44.792;10.358;2022-09-27T16:32:42;3.05;;;1.00;;
22849;SDS011;11591;44.792;10.358;2022-09-27T16:35:09;9.80;;;2.13;;
22849;SDS011;11591;44.792;10.358;2022-09-27T16:37:37;10.98;;;4.00;;
22849;SDS011;11591;44.792;10.358;2022-09-27T16:40:03;12.38;;;5.38;;
22849;SDS011;11591;44.792;10.358;2022-09-27T16:42:31;5.65;;;1.40;;
22849;SDS011;11591;44.792;10.358;2022-09-27T16:44:57;8.05;;;1.38;;
22849;SDS011;11591;44.792;10.358;2022-09-27T16:47:22;12.60;;;1.85;;
22849;SDS011;11591;44.792;10.358;2022-09-27T16:49:48;5.70;;;0.90;;
22849;SDS011;11591;44.792;10.358;2022-09-27T16:52:33;2.83;;;1.02;;
22849;SDS011;11591;44.792;10.358;2022-09-27T16:54:58;5.72;;;1.35;;
22849;SDS011;11591;44.792;10.358;2022-09-27T16:57:25;11.80;;;1.83;;
22849;SDS011;11591;44.792;10.358;2022-09-27T16:59:54;9.02;;;1.40;;
22849;SDS011;11591;44.792;10.358;2022-09-27T17:02:22;4.82;;;1.13;;
22849;SDS011;11591;44.792;10.358;2022-09-27T17:04:49;5.38;;;1.33;;
22849;SDS011;11591;44.792;10.358;2022-09-27T17:07:15;3.70;;;1.20;;
22849;SDS011;11591;44.792;10.358;2022-09-27T17:09:42;10.90;;;1.52;;
22849;SDS011;11591;44.792;10.358;2022-09-27T17:12:07;6.85;;;1.33;;
22849;SDS011;11591;44.792;10.358;2022-09-27T17:14:33;7.85;;;1.23;;
22849;SDS011;11591;44.792;10.358;2022-09-27T17:16:59;6.80;;;1.10;;
22849;SDS011;11591;44.792;10.358;2022-09-27T17:19:25;5.93;;;1.20;;
22849;SDS011;11591;44.792;10.358;2022-09-27T17:21:52;14.23;;;2.50;;
22849;SDS011;11591;44.792;10.358;2022-09-27T17:24:19;6.25;;;1.00;;
22849;SDS011;11591;44.792;10.358;2022-09-27T17:26:46;7.32;;;1.40;;
22849;SDS011;11591;44.792;10.358;2022-09-27T17:29:12;6.28;;;1.58;;
22849;SDS011;11591;44.792;10.358;2022-09-27T17:31:38;12.15;;;1.55;;
22849;SDS011;11591;44.792;10.358;2022-09-27T17:34:05;13.73;;;7.28;;
22849;SDS011;11591;44.792;10.358;2022-09-27T17:36:35;5.85;;;1.95;;
22849;SDS011;11591;44.792;10.358;2022-09-27T17:39:02;10.65;;;3.78;;
22849;SDS011;11591;44.792;10.358;2022-09-27T17:41:29;7.95;;;2.25;;
22849;SDS011;11591;44.792;10.358;2022-09-27T17:43:56;10.10;;;2.47;;
22849;SDS011;11591;44.792;10.358;2022-09-27T17:46:27;7.22;;;2.30;;
22849;SDS011;11591;44.792;10.358;2022-09-27T17:48:55;10.27;;;2.75;;
22849;SDS011;11591;44.792;10.358;2022-09-27T17:51:40;9.52;;;2.08;;
22849;SDS011;11591;44.792;10.358;2022-09-27T17:54:07;8.75;;;1.52;;
22849;SDS011;11591;44.792;10.358;2022-09-27T17:56:38;8.10;;;1.60;;
22849;SDS011;11591;44.792;10.358;2022-09-27T17:59:05;8.20;;;1.70;;
22849;SDS011;11591;44.792;10.358;2022-09-27T18:01:32;5.57;;;1.50;;
22849;SDS011;11591;44.792;10.358;2022-09-27T18:04:00;7.05;;;1.50;;
22849;SDS011;11591;44.792;10.358;2022-09-27T18:06:27;9.57;;;0.90;;
22849;SDS011;11591;44.792;10.358;2022-09-27T18:08:53;13.43;;;1.33;;
22849;SDS011;11591;44.792;10.358;2022-09-27T18:11:22;6.70;;;1.20;;
22849;SDS011;11591;44.792;10.358;2022-09-27T18:13:57;9.27;;;1.25;;
22849;SDS011;11591;44.792;10.358;2022-09-27T18:16:24;9.07;;;1.38;;
22849;SDS011;11591;44.792;10.358;2022-09-27T18:19:00;7.13;;;1.70;;
22849;SDS011;11591;44.792;10.358;2022-09-27T18:21:28;5.72;;;1.45;;
22849;SDS011;11591;44.792;10.358;2022-09-27T18:23:58;9.23;;;2.28;;
22849;SDS011;11591;44.792;10.358;2022-09-27T18:26:27;8.73;;;3.15;;
22849;SDS011;11591;44.792;10.358;2022-09-27T18:28:54;14.30;;;3.30;;
22849;SDS011;11591;44.792;10.358;2022-09-27T18:31:25;9.65;;;2.63;;
22849;SDS011;11591;44.792;10.358;2022-09-27T18:33:51;9.07;;;2.85;;
22849;SDS011;11591;44.792;10.358;2022-09-27T18:36:20;8.25;;;2.17;;
22849;SDS011;11591;44.792;10.358;2022-09-27T18:39:32;12.00;;;1.67;;
22849;SDS011;11591;44.792;10.358;2022-09-27T18:41:43;8.88;;;2.03;;
22849;SDS011;11591;44.792;10.358;2022-09-27T18:44:11;8.63;;;1.90;;
22849;SDS011;11591;44.792;10.358;2022-09-27T18:46:39;7.78;;;1.73;;
22849;SDS011;11591;44.792;10.358;2022-09-27T18:49:06;11.93;;;1.83;;
22849;SDS011;11591;44.792;10.358;2022-09-27T18:51:35;7.82;;;1.50;;
22849;SDS011;11591;44.792;10.358;2022-09-27T18:54:04;8.80;;;1.70;;
22849;SDS011;11591;44.792;10.358;2022-09-27T18:56:33;10.60;;;1.25;;
22849;SDS011;11591;44.792;10.358;2022-09-27T18:59:04;7.10;;;1.73;;
22849;SDS011;11591;44.792;10.358;2022-09-27T19:01:32;6.30;;;1.38;;
22849;SDS011;11591;44.792;10.358;2022-09-27T19:04:04;5.93;;;1.60;;
22849;SDS011;11591;44.792;10.358;2022-09-27T19:06:31;6.80;;;2.97;;
22849;SDS011;11591;44.792;10.358;2022-09-27T19:09:00;9.32;;;3.10;;
22849;SDS011;11591;44.792;10.358;2022-09-27T19:11:28;10.57;;;4.50;;
22849;SDS011;11591;44.792;10.358;2022-09-27T19:13:56;14.25;;;4.60;;
22849;SDS011;11591;44.792;10.358;2022-09-27T19:16:23;10.18;;;4.18;;
22849;SDS011;11591;44.792;10.358;2022-09-27T19:18:50;6.05;;;2.92;;
22849;SDS011;11591;44.792;10.358;2022-09-27T19:21:18;8.73;;;2.25;;
22849;SDS011;11591;44.792;10.358;2022-09-27T19:23:50;7.82;;;2.03;;
22849;SDS011;11591;44.792;10.358;2022-09-27T19:26:22;8.07;;;1.70;;
22849;SDS011;11591;44.792;10.358;2022-09-27T19:28:51;3.22;;;1.52;;
22849;SDS011;11591;44.792;10.358;2022-09-27T19:31:19;7.75;;;1.70;;
22849;SDS011;11591;44.792;10.358;2022-09-27T19:33:49;6.55;;;1.45;;
22849;SDS011;11591;44.792;10.358;2022-09-27T19:36:17;5.97;;;0.93;;
22849;SDS011;11591;44.792;10.358;2022-09-27T19:38:44;6.00;;;1.25;;
22849;SDS011;11591;44.792;10.358;2022-09-27T19:41:12;4.45;;;1.33;;
22849;SDS011;11591;44.792;10.358;2022-09-27T19:43:48;4.88;;;1.17;;
22849;SDS011;11591;44.792;10.358;2022-09-27T19:46:22;6.20;;;1.10;;
22849;SDS011;11591;44.792;10.358;2022-09-27T19:48:53;9.88;;;1.90;;
22849;SDS011;11591;44.792;10.358;2022-09-27T19:51:24;7.80;;;1.23;;
22849;SDS011;11591;44.792;10.358;2022-09-27T19:53:51;4.95;;;0.77;;
22849;SDS011;11591;44.792;10.358;2022-09-27T19:56:20;6.70;;;1.10;;
22849;SDS011;11591;44.792;10.358;2022-09-27T19:58:47;5.57;;;1.10;;
22849;SDS011;11591;44.792;10.358;2022-09-27T20:01:15;5.07;;;1.10;;
22849;SDS011;11591;44.792;10.358;2022-09-27T20:03:46;12.05;;;1.50;;
22849;SDS011;11591;44.792;10.358;2022-09-27T20:06:14;10.88;;;1.50;;
22849;SDS011;11591;44.792;10.358;2022-09-27T20:08:43;7.97;;;1.30;;
22849;SDS011;11591;44.792;10.358;2022-09-27T20:11:12;8.80;;;1.23;;
22849;SDS011;11591;44.792;10.358;2022-09-27T20:13:43;5.65;;;1.30;;
22849;SDS011;11591;44.792;10.358;2022-09-27T20:16:18;5.15;;;1.00;;
22849;SDS011;11591;44.792;10.358;2022-09-27T20:18:47;8.75;;;1.25;;
22849;SDS011;11591;44.792;10.358;2022-09-27T20:21:14;8.48;;;1.27;;
22849;SDS011;11591;44.792;10.358;2022-09-27T20:23:42;6.88;;;1.38;;
22849;SDS011;11591;44.792;10.358;2022-09-27T20:26:09;10.50;;;1.40;;
22849;SDS011;11591;44.792;10.358;2022-09-27T20:28:41;3.83;;;0.90;;
22849;SDS011;11591;44.792;10.358;2022-09-27T20:31:09;6.93;;;1.48;;
22849;SDS011;11591;44.792;10.358;2022-09-27T20:33:39;10.75;;;1.35;;
22849;SDS011;11591;44.792;10.358;2022-09-27T20:36:13;8.85;;;1.60;;
22849;SDS011;11591;44.792;10.358;2022-09-27T20:38:46;7.60;;;1.20;;
22849;SDS011;11591;44.792;10.358;2022-09-27T20:41:18;12.00;;;1.15;;
22849;SDS011;11591;44.792;10.358;2022-09-27T20:43:49;5.97;;;1.10;;
22849;SDS011;11591;44.792;10.358;2022-09-27T20:46:18;8.75;;;1.35;;
22849;SDS011;11591;44.792;10.358;2022-09-27T20:48:45;5.32;;;0.90;;
22849;SDS011;11591;44.792;10.358;2022-09-27T20:51:20;9.10;;;1.48;;
22849;SDS011;11591;44.792;10.358;2022-09-27T20:53:47;10.65;;;1.05;;
22849;SDS011;11591;44.792;10.358;2022-09-27T20:56:19;15.45;;;1.77;;
22849;SDS011;11591;44.792;10.358;2022-09-27T20:58:46;10.65;;;2.55;;
22849;SDS011;11591;44.792;10.358;2022-09-27T21:01:13;10.35;;;1.80;;
22849;SDS011;11591;44.792;10.358;2022-09-27T21:03:39;13.55;;;6.13;;
22849;SDS011;11591;44.792;10.358;2022-09-27T21:06:05;5.30;;;1.70;;
22849;SDS011;11591;44.792;10.358;2022-09-27T21:08:31;7.78;;;1.42;;
22849;SDS011;11591;44.792;10.358;2022-09-27T21:11:11;6.05;;;1.40;;
22849;SDS011;11591;44.792;10.358;2022-09-27T21:13:39;6.07;;;2.90;;
22849;SDS011;11591;44.792;10.358;2022-09-27T21:16:09;7.28;;;1.58;;
22849;SDS011;11591;44.792;10.358;2022-09-27T21:18:37;8.95;;;2.20;;
22849;SDS011;11591;44.792;10.358;2022-09-27T21:21:08;8.63;;;1.48;;
22849;SDS011;11591;44.792;10.358;2022-09-27T21:23:36;7.63;;;1.40;;
22849;SDS011;11591;44.792;10.358;2022-09-27T21:26:07;7.75;;;1.23;;
